KCGF

Cuyahoga County Airport

Cleveland, Ohio, USA
METAR KCGF 141245Z 26006KT 10SM SCT015 BKN080 23/21 A3000
Observed Flight Rules
Aug-14 @ 12:45 UTC (58 minutes ago) Visual Flight Rules
Wind Visibility Clouds
260° at 6 knots 10 miles
  • Scattered at 1,500' AGL
  • Broken at 8,000' AGL
Temperatures Readings
Current 23°C / 73°F
Dewpoint 21°C / 70°F
Humidity 89%
Altimeter 30" Hg
Pressure 1016 hPa
Elevation 268
METAR KCGF 141245Z 26006KT 10SM SCT015 BKN080 23/21 A3000
Observed Flight Rules
Aug-14 @ 12:45 UTC
(58 minutes ago)
VFR
Wind Visibility
260° at 6 knots 10 miles
Clouds
  • Scattered at 1,500' AGL
  • Broken at 8,000' AGL
Temperature Dewpoint
23°C / 73°F 21°C / 70°F
Humidity Altimeter Pressure
89% 30" Hg 1016 hPa